Nypd8 — WDH6433 — position and weather

sailwx.info

Track history (hours):
 
Tides and Currents Weather Stations Pressure Air Temp Water Temp Dewpoint Dewpoint Depression Visibility Wind Speed Wind Dir Waves Ship Positions

Nypd8

Owner: New York City Police Department, Brooklyn, NY. More information available from US FCC via Universal Licensing System.

Last reported at 2018-Jan-02 20:41 UTC. Time now 2018-Jul-17 01:54 UTC.
Position N 40°43' W 074°01'.
Warning: this ship's position is months out of date.

Length 18 m; draft 1.5 m.

Type: Law enforcement. MMSI: 367637910.

Date/timePositionNaut miles runAvg speedWind from/ knotsBaromVisibWave heightAir tempDewpointWater temp
2018-Jan-02 20:41N 40°43' W 074°01'0 1.0
2018-Jan-02 20:25N 40°43' W 074°01'0 0.0
2018-Jan-02 19:58N 40°43' W 074°01'0 0.0
2018-Jan-02 19:27N 40°43' W 074°01'3 0.1
2018-Jan-01 21:53N 40°40' W 074°00'0 0.1
2018-Jan-01 21:29N 40°40' W 074°00'0 0.0
2018-Jan-01 20:59N 40°40' W 074°00'0 0.0
2018-Jan-01 20:30N 40°40' W 074°00'0 0.0
2018-Jan-01 19:56N 40°40' W 074°00'0 0.0
2018-Jan-01 19:30N 40°40' W 074°00'0 0.1
2018-Jan-01 17:57N 40°40' W 074°00'2 0.2
2018-Jan-01 07:05N 40°42' W 074°01'1 8.1
2018-Jan-01 06:54N 40°43' W 074°01'3 0.3
2017-Dec-31 18:53N 40°40' W 074°01'0 0.0
2017-Dec-31 18:28N 40°40' W 074°01'0 0.0
2017-Dec-31 18:00N 40°40' W 074°01'0 0.0
2017-Dec-31 17:14N 40°40' W 074°01'3 0.1
2017-Dec-30 20:10N 40°43' W 074°01'1 0.0
2017-Dec-28 20:03N 40°43' W 073°60'0 0.2
2017-Dec-28 19:56N 40°43' W 073°60'4 0.5
2017-Dec-28 11:10N 40°39' W 074°02'311.3
2017-Dec-28 10:54N 40°41' W 074°01'0 0.0
2017-Dec-28 10:30N 40°41' W 074°01'0 0.0
2017-Dec-28 09:53N 40°41' W 074°01'0 0.0
2017-Dec-28 09:30N 40°41' W 074°01'0 0.0
2017-Dec-28 09:00N 40°41' W 074°01'0 0.0
2017-Dec-28 08:30N 40°41' W 074°01'0 0.0
2017-Dec-28 08:00N 40°41' W 074°01'0 0.0
2017-Dec-28 07:26N 40°41' W 074°01'0 0.0
2017-Dec-28 06:58N 40°41' W 074°01'0 0.0
2017-Dec-28 06:22N 40°41' W 074°01'1 2.8
2017-Dec-28 05:57N 40°42' W 073°60'1 2.9
2017-Dec-28 05:30N 40°43' W 073°58'3 0.4
2017-Dec-27 23:01N 40°41' W 074°01'3 7.5
2017-Dec-27 22:40N 40°43' W 073°58'419.0
2017-Dec-27 22:28N 40°40' W 074°01'1 2.4
2017-Dec-27 22:00N 40°39' W 074°02'5 1.9
2017-Dec-27 19:29N 40°43' W 073°58'0 0.0
2017-Dec-27 16:28N 40°43' W 073°58'2 0.3
2017-Dec-27 08:01N 40°41' W 074°01'0 0.0
2017-Dec-27 07:54N 40°41' W 074°01'2 3.6
2017-Dec-27 07:23N 40°43' W 073°59'1 0.3
2017-Dec-27 04:58N 40°43' W 073°60'2 0.5
2017-Dec-27 01:34N 40°41' W 074°01'1 0.1
2017-Dec-26 18:54N 40°42' W 074°00'2 1.5
2017-Dec-26 17:46N 40°40' W 074°00'0 0.0
2017-Dec-26 17:28N 40°40' W 074°00'2 0.0
2017-Dec-24 21:53N 40°39' W 074°02'2 3.5
2017-Dec-24 21:24N 40°40' W 074°01'0 0.0
2017-Dec-24 20:19N 40°40' W 074°01'1 2.0
2017-Dec-24 19:59N 40°40' W 074°01'1 2.2
2017-Dec-24 19:30N 40°39' W 074°02'0 0.0
2017-Dec-24 19:00N 40°39' W 074°02'0 0.0
2017-Dec-24 18:30N 40°39' W 074°02'1 0.7
2017-Dec-24 17:45N 40°39' W 074°02'1 2.3
2017-Dec-24 17:30N 40°39' W 074°02'0 0.4
2017-Dec-24 16:52N 40°39' W 074°02'2 2.1
2017-Dec-24 16:06N 40°40' W 074°01'110.9
2017-Dec-24 15:59N 40°39' W 074°02'0 0.7
2017-Dec-24 15:30N 40°39' W 074°02'0 0.0
2017-Dec-24 15:00N 40°39' W 074°02'0 0.0
2017-Dec-24 14:30N 40°39' W 074°02'0 0.0
2017-Dec-24 14:00N 40°39' W 074°02'0 0.0
2017-Dec-24 13:30N 40°39' W 074°02'0 0.0
2017-Dec-24 13:00N 40°39' W 074°02'0 0.0
2017-Dec-23 22:01N 40°39' W 074°02'0 0.0
2017-Dec-23 21:58N 40°39' W 074°02'  
Track history (hours):
 
Tides and Currents Weather Stations Pressure Air Temp Water Temp Dewpoint Dewpoint Depression Visibility Wind Speed Wind Dir Waves Ship Positions

Nypd8

Owner: New York City Police Department, Brooklyn, NY. More information available from US FCC via Universal Licensing System.

Last reported at 2018-Jan-02 20:41 UTC. Time now 2018-Jul-17 01:54 UTC.
Position N 40°43' W 074°01'.
Warning: this ship's position is months out of date.

Length 18 m; draft 1.5 m.

Type: Law enforcement. MMSI: 367637910.

Date/timePositionNaut miles runAvg speedWind from/ knotsBaromVisibWave heightAir tempDewpointWater temp
2018-Jan-02 20:41N 40°43' W 074°01'0 1.0
2018-Jan-02 20:25N 40°43' W 074°01'0 0.0
2018-Jan-02 19:58N 40°43' W 074°01'0 0.0
2018-Jan-02 19:27N 40°43' W 074°01'3 0.1
2018-Jan-01 21:53N 40°40' W 074°00'0 0.1
2018-Jan-01 21:29N 40°40' W 074°00'0 0.0
2018-Jan-01 20:59N 40°40' W 074°00'0 0.0
2018-Jan-01 20:30N 40°40' W 074°00'0 0.0
2018-Jan-01 19:56N 40°40' W 074°00'0 0.0
2018-Jan-01 19:30N 40°40' W 074°00'0 0.1
2018-Jan-01 17:57N 40°40' W 074°00'2 0.2
2018-Jan-01 07:05N 40°42' W 074°01'1 8.1
2018-Jan-01 06:54N 40°43' W 074°01'3 0.3
2017-Dec-31 18:53N 40°40' W 074°01'0 0.0
2017-Dec-31 18:28N 40°40' W 074°01'0 0.0
2017-Dec-31 18:00N 40°40' W 074°01'0 0.0
2017-Dec-31 17:14N 40°40' W 074°01'3 0.1
2017-Dec-30 20:10N 40°43' W 074°01'1 0.0
2017-Dec-28 20:03N 40°43' W 073°60'0 0.2
2017-Dec-28 19:56N 40°43' W 073°60'4 0.5
2017-Dec-28 11:10N 40°39' W 074°02'311.3
2017-Dec-28 10:54N 40°41' W 074°01'0 0.0
2017-Dec-28 10:30N 40°41' W 074°01'0 0.0
2017-Dec-28 09:53N 40°41' W 074°01'0 0.0
2017-Dec-28 09:30N 40°41' W 074°01'0 0.0
2017-Dec-28 09:00N 40°41' W 074°01'0 0.0
2017-Dec-28 08:30N 40°41' W 074°01'0 0.0
2017-Dec-28 08:00N 40°41' W 074°01'0 0.0
2017-Dec-28 07:26N 40°41' W 074°01'0 0.0
2017-Dec-28 06:58N 40°41' W 074°01'0 0.0
2017-Dec-28 06:22N 40°41' W 074°01'1 2.8
2017-Dec-28 05:57N 40°42' W 073°60'1 2.9
2017-Dec-28 05:30N 40°43' W 073°58'3 0.4
2017-Dec-27 23:01N 40°41' W 074°01'3 7.5
2017-Dec-27 22:40N 40°43' W 073°58'419.0
2017-Dec-27 22:28N 40°40' W 074°01'1 2.4
2017-Dec-27 22:00N 40°39' W 074°02'5 1.9
2017-Dec-27 19:29N 40°43' W 073°58'0 0.0
2017-Dec-27 16:28N 40°43' W 073°58'2 0.3
2017-Dec-27 08:01N 40°41' W 074°01'0 0.0
2017-Dec-27 07:54N 40°41' W 074°01'2 3.6
2017-Dec-27 07:23N 40°43' W 073°59'1 0.3
2017-Dec-27 04:58N 40°43' W 073°60'2 0.5
2017-Dec-27 01:34N 40°41' W 074°01'1 0.1
2017-Dec-26 18:54N 40°42' W 074°00'2 1.5
2017-Dec-26 17:46N 40°40' W 074°00'0 0.0
2017-Dec-26 17:28N 40°40' W 074°00'2 0.0
2017-Dec-24 21:53N 40°39' W 074°02'2 3.5
2017-Dec-24 21:24N 40°40' W 074°01'0 0.0
2017-Dec-24 20:19N 40°40' W 074°01'1 2.0
2017-Dec-24 19:59N 40°40' W 074°01'1 2.2
2017-Dec-24 19:30N 40°39' W 074°02'0 0.0
2017-Dec-24 19:00N 40°39' W 074°02'0 0.0
2017-Dec-24 18:30N 40°39' W 074°02'1 0.7
2017-Dec-24 17:45N 40°39' W 074°02'1 2.3
2017-Dec-24 17:30N 40°39' W 074°02'0 0.4
2017-Dec-24 16:52N 40°39' W 074°02'2 2.1
2017-Dec-24 16:06N 40°40' W 074°01'110.9
2017-Dec-24 15:59N 40°39' W 074°02'0 0.7
2017-Dec-24 15:30N 40°39' W 074°02'0 0.0
2017-Dec-24 15:00N 40°39' W 074°02'0 0.0
2017-Dec-24 14:30N 40°39' W 074°02'0 0.0
2017-Dec-24 14:00N 40°39' W 074°02'0 0.0
2017-Dec-24 13:30N 40°39' W 074°02'0 0.0
2017-Dec-24 13:00N 40°39' W 074°02'0 0.0
2017-Dec-23 22:01N 40°39' W 074°02'0 0.0
2017-Dec-23 21:58N 40°39' W 074°02'  

Dump ship's entire track history